Time;durP1;ratioP1;P1;durP2;ratioP2;P2;SDS_P1;SDS_P2;PMS_P1;PMS_P2;Temp;Humidity;BMP_temperature;BMP_pressure;BME280_temperature;BME280_humidity;BME280_pressure;Samples;Min_cycle;Max_cycle;Signal;HPM_P1;HPM_P2
2021/10/23 00:01:34;;;;;;;;;;;;;;;3.13;62.22;96176.97;5003624;28;20554;-67
2021/10/23 00:03:59;;;;;;;;;;;;;;;3.55;61.10;96181.69;5003536;28;20462;-69
2021/10/23 00:06:24;;;;;;;;;;;;;;;3.49;61.13;96178.72;5002022;28;20032;-66
2021/10/23 00:08:50;;;;;;;;;;;;;;;3.05;62.87;96182.00;5003305;28;20052;-68
2021/10/23 00:11:15;;;;;;;;;;;;;;;3.18;61.94;96192.41;5002898;28;20215;-70
2021/10/23 00:13:40;;;;;;;;;;;;;;;3.06;63.19;96190.72;5003360;28;20043;-70
2021/10/23 00:16:07;;;;;;;;;;;;;;;3.10;62.77;96205.31;5002772;28;20024;-69
2021/10/23 00:18:32;;;;;;;;;;;;;;;3.09;64.00;96207.09;5006301;28;19972;-70
2021/10/23 00:20:57;;;;;;;;;;;;;;;3.32;61.70;96203.66;5005362;28;20458;-67
2021/10/23 00:23:22;;;;;;;;;;;;;;;3.54;61.25;96205.53;5004351;28;20498;-69
2021/10/23 00:25:48;;;;;;;;;;;;;;;3.02;63.07;96205.88;5005856;28;20024;-73
2021/10/23 00:28:13;;;;;;;;;;;;;;;3.34;61.29;96210.53;5004058;28;20006;-70
2021/10/23 00:30:38;;;;;;;;;;;;;;;3.67;60.08;96210.66;5006122;28;20458;-68
2021/10/23 00:33:03;;;;;;;;;;;;;;;3.78;60.18;96212.47;5004112;28;20040;-67
2021/10/23 00:35:29;;;;;;;;;;;;;;;3.51;60.42;96211.84;5005650;28;19989;-71
2021/10/23 00:37:54;;;;;;;;;;;;;;;3.47;60.86;96218.31;4991603;28;19981;-68
2021/10/23 00:40:20;;;;;;;;;;;;;;;2.56;61.75;96215.44;5002056;28;20011;-67
2021/10/23 00:42:45;;;;;;;;;;;;;;;2.49;60.70;96230.81;4989878;28;19921;-70
2021/10/23 00:45:10;;;;;;;;;;;;;;;2.16;61.40;96237.53;4990367;28;19932;-65
2021/10/23 00:47:36;;;;;;;;;;;;;;;1.25;65.80;96248.94;4987043;28;19953;-66
2021/10/23 00:50:01;;;;;;;;;;;;;;;0.68;69.48;96246.53;4987002;28;19964;-67
2021/10/23 00:52:26;;;;;;;;;;;;;;;0.90;70.16;96247.75;4996574;28;20301;-67
2021/10/23 00:54:52;;;;;;;;;;;;;;;1.83;66.91;96259.06;5003460;28;20095;-67
2021/10/23 00:57:18;;;;;;;;;;;;;;;1.22;69.44;96257.03;4992209;28;20383;-69
2021/10/23 00:59:43;;;;;;;;;;;;;;;1.80;67.26;96255.81;4990865;28;19922;-69
2021/10/23 01:02:08;;;;;;;;;;;;;;;1.66;67.66;96256.78;4988426;28;19925;-68
2021/10/23 01:04:34;;;;;;;;;;;;;;;1.99;67.19;96260.59;4988522;28;19933;-68
2021/10/23 01:06:59;;;;;;;;;;;;;;;2.33;65.27;96244.22;4986682;28;20321;-67
2021/10/23 01:09:24;;;;;;;;;;;;;;;2.45;65.31;96245.13;4999925;28;19922;-66
2021/10/23 01:11:50;;;;;;;;;;;;;;;2.47;64.32;96254.59;4971229;28;19924;-65
2021/10/23 01:14:16;;;;;;;;;;;;;;;2.29;63.88;96253.28;4990220;28;19976;-68
2021/10/23 01:16:42;;;;;;;;;;;;;;;2.46;63.58;96255.53;5006577;28;19921;-68
2021/10/23 01:19:07;;;;;;;;;;;;;;;2.63;62.80;96253.47;5003424;28;19921;-69
2021/10/23 01:21:32;;;;;;;;;;;;;;;2.28;64.59;96260.31;5005125;28;20022;-69
2021/10/23 01:23:58;;;;;;;;;;;;;;;2.64;63.38;96255.97;5004200;28;19918;-68
2021/10/23 01:26:23;;;;;;;;;;;;;;;2.56;63.89;96257.50;5004638;28;20581;-67
2021/10/23 01:28:48;;;;;;;;;;;;;;;2.59;63.75;96263.34;5004018;28;20010;-68
2021/10/23 01:31:14;;;;;;;;;;;;;;;2.65;64.19;96269.94;5003170;28;20196;-71
2021/10/23 01:33:39;;;;;;;;;;;;;;;2.64;64.57;96276.16;5003601;28;20039;-67
2021/10/23 01:36:16;;;;;;;;;;;;;;;3.02;62.55;96277.78;5003006;28;19921;-68
2021/10/23 01:38:42;;;;;;;;;;;;;;;2.90;62.92;96268.16;5003785;28;19917;-68
2021/10/23 01:41:08;;;;;;;;;;;;;;;2.98;62.98;96252.66;5002816;28;20000;-70
2021/10/23 01:43:33;;;;;;;;;;;;;;;2.86;62.90;96256.19;5003103;28;20309;-70
2021/10/23 01:45:58;;;;;;;;;;;;;;;2.72;63.15;96265.09;5004752;28;20123;-69
2021/10/23 01:48:24;;;;;;;;;;;;;;;2.90;62.79;96253.19;5002837;28;19998;-70
2021/10/23 01:50:49;;;;;;;;;;;;;;;2.87;62.97;96247.34;5004514;28;19977;-70
2021/10/23 01:53:14;;;;;;;;;;;;;;;3.15;62.53;96250.53;4996844;28;20748;-70
2021/10/23 01:55:39;;;;;;;;;;;;;;;2.94;62.67;96255.63;4997131;28;20001;-69
2021/10/23 01:58:05;;;;;;;;;;;;;;;3.08;62.05;96263.31;5004421;28;19976;-70
2021/10/23 02:00:30;;;;;;;;;;;;;;;3.20;62.16;96258.09;5004423;28;20047;-69
2021/10/23 02:02:55;;;;;;;;;;;;;;;2.75;62.71;96249.94;5004182;28;20165;-65
2021/10/23 02:05:20;;;;;;;;;;;;;;;2.57;64.08;96254.75;5002872;28;19988;-67
2021/10/23 02:07:46;;;;;;;;;;;;;;;3.08;62.56;96251.94;5003731;28;19926;-68
2021/10/23 02:10:11;;;;;;;;;;;;;;;2.98;62.79;96249.16;5004289;28;19922;-68
2021/10/23 02:12:36;;;;;;;;;;;;;;;3.37;61.40;96241.03;5003506;28;19997;-66
2021/10/23 02:15:02;;;;;;;;;;;;;;;3.55;60.74;96234.34;5002680;28;19918;-69
2021/10/23 02:17:27;;;;;;;;;;;;;;;3.70;60.89;96235.94;4985875;28;20282;-67
2021/10/23 02:19:52;;;;;;;;;;;;;;;3.72;60.86;96247.19;5003640;28;20599;-70
2021/10/23 02:22:18;;;;;;;;;;;;;;;3.09;62.11;96243.94;5003572;28;19974;-70
2021/10/23 02:24:43;;;;;;;;;;;;;;;3.32;61.61;96236.09;5003730;28;20632;-69
2021/10/23 02:27:08;;;;;;;;;;;;;;;3.20;63.01;96231.78;5003207;28;20004;-68
2021/10/23 02:29:33;;;;;;;;;;;;;;;2.48;64.96;96242.25;5003812;28;20009;-70
2021/10/23 02:31:59;;;;;;;;;;;;;;;2.30;66.39;96240.03;4985595;28;19986;-68
2021/10/23 02:34:24;;;;;;;;;;;;;;;2.48;65.32;96239.63;5004253;28;20069;-68
2021/10/23 02:36:50;;;;;;;;;;;;;;;2.04;66.64;96252.41;5003127;28;20000;-69
2021/10/23 02:39:15;;;;;;;;;;;;;;;1.92;67.77;96252.31;5003724;28;19981;-67
2021/10/23 02:41:40;;;;;;;;;;;;;;;2.08;66.60;96254.69;5002177;28;20036;-69
2021/10/23 02:44:06;;;;;;;;;;;;;;;1.92;67.24;96247.06;5003060;28;19990;-70
2021/10/23 02:46:31;;;;;;;;;;;;;;;1.39;69.19;96261.13;5003587;28;19926;-65
2021/10/23 02:48:56;;;;;;;;;;;;;;;1.20;70.53;96261.56;5003547;28;20372;-68
2021/10/23 02:51:21;;;;;;;;;;;;;;;1.53;69.77;96254.13;5003021;28;19917;-67
2021/10/23 02:53:47;;;;;;;;;;;;;;;1.17;70.93;96262.59;5002961;28;19917;-69
2021/10/23 02:56:12;;;;;;;;;;;;;;;1.29;70.68;96257.47;5003012;28;20012;-66
2021/10/23 02:58:37;;;;;;;;;;;;;;;1.35;69.86;96255.28;5002022;28;19961;-66
2021/10/23 03:01:02;;;;;;;;;;;;;;;1.72;68.76;96261.59;5002808;28;19963;-68
2021/10/23 03:03:28;;;;;;;;;;;;;;;1.65;69.17;96258.56;5001753;28;20643;-68
2021/10/23 03:05:53;;;;;;;;;;;;;;;1.52;69.34;96255.91;5003205;28;20283;-67
2021/10/23 03:08:18;;;;;;;;;;;;;;;1.98;67.67;96248.44;5002882;28;19998;-66
2021/10/23 03:10:44;;;;;;;;;;;;;;;1.82;68.53;96248.66;5003105;28;19976;-69
2021/10/23 03:13:09;;;;;;;;;;;;;;;1.45;69.81;96244.97;5002720;28;20096;-67
2021/10/23 03:15:34;;;;;;;;;;;;;;;1.37;70.38;96252.53;5002912;28;19993;-68
2021/10/23 03:17:59;;;;;;;;;;;;;;;1.71;69.18;96250.22;5002988;28;19980;-69
2021/10/23 03:20:25;;;;;;;;;;;;;;;2.07;68.54;96247.75;5002622;28;20678;-67
2021/10/23 03:22:50;;;;;;;;;;;;;;;1.96;68.62;96260.81;5003072;28;19973;-68
2021/10/23 03:25:15;;;;;;;;;;;;;;;1.67;69.24;96258.44;5002220;28;20454;-70
2021/10/23 03:27:41;;;;;;;;;;;;;;;1.73;69.93;96271.97;5002129;28;20287;-70
2021/10/23 03:30:06;;;;;;;;;;;;;;;1.74;69.47;96275.47;5001747;28;20028;-69
2021/10/23 03:32:32;;;;;;;;;;;;;;;1.66;69.32;96273.34;5001521;28;19997;-68
2021/10/23 03:35:00;;;;;;;;;;;;;;;1.05;71.35;96268.66;5002677;28;19985;-67
2021/10/23 03:37:29;;;;;;;;;;;;;;;1.27;70.13;96270.69;5001024;28;19994;-66
2021/10/23 03:39:54;;;;;;;;;;;;;;;1.34;70.35;96279.00;5002611;28;19997;-68
2021/10/23 03:42:19;;;;;;;;;;;;;;;0.95;72.53;96286.78;5001455;28;20342;-68
2021/10/23 03:44:44;;;;;;;;;;;;;;;0.70;72.91;96288.38;5002352;28;20036;-69
2021/10/23 03:47:10;;;;;;;;;;;;;;;1.34;70.07;96294.72;5002305;28;19989;-70
2021/10/23 03:49:35;;;;;;;;;;;;;;;1.46;70.14;96300.91;5001224;28;20077;-71
2021/10/23 03:52:01;;;;;;;;;;;;;;;0.89;71.65;96302.91;5002383;28;20457;-68
2021/10/23 03:54:26;;;;;;;;;;;;;;;1.34;70.15;96297.34;5002252;28;20470;-69
2021/10/23 03:56:52;;;;;;;;;;;;;;;1.74;68.60;96288.59;5002564;28;20096;-67
2021/10/23 03:59:17;;;;;;;;;;;;;;;1.35;69.74;96299.88;5000558;28;19993;-68
2021/10/23 04:01:42;;;;;;;;;;;;;;;1.96;67.95;96298.44;4996756;28;19966;-70
2021/10/23 04:04:08;;;;;;;;;;;;;;;1.67;68.71;96305.69;5002478;28;20033;-68
2021/10/23 04:06:33;;;;;;;;;;;;;;;1.38;69.18;96311.94;5002703;28;19989;-70
2021/10/23 04:08:59;;;;;;;;;;;;;;;1.51;68.96;96311.97;5002091;28;20037;-70
2021/10/23 04:11:24;;;;;;;;;;;;;;;1.68;68.36;96310.00;5000398;28;19974;-70
2021/10/23 04:13:49;;;;;;;;;;;;;;;1.76;67.86;96307.69;5002290;28;20000;-70
2021/10/23 04:16:15;;;;;;;;;;;;;;;1.53;69.46;96325.84;5002021;28;19994;-68
2021/10/23 04:18:40;;;;;;;;;;;;;;;1.99;68.29;96328.91;5001994;28;20406;-68
2021/10/23 04:21:05;;;;;;;;;;;;;;;2.07;68.04;96333.59;5001935;28;19990;-71
2021/10/23 04:23:31;;;;;;;;;;;;;;;2.76;65.63;96319.16;5001882;28;20495;-70
2021/10/23 04:25:56;;;;;;;;;;;;;;;2.14;67.10;96332.22;5002247;28;20060;-67
2021/10/23 04:28:21;;;;;;;;;;;;;;;1.14;70.01;96325.75;5000085;28;20226;-68
2021/10/23 04:30:48;;;;;;;;;;;;;;;1.08;70.07;96321.75;5001711;28;20419;-69
2021/10/23 04:33:13;;;;;;;;;;;;;;;1.07;69.87;96330.56;5001905;28;19933;-69
2021/10/23 04:35:39;;;;;;;;;;;;;;;0.93;70.56;96317.50;5001780;28;19955;-69
2021/10/23 04:38:04;;;;;;;;;;;;;;;0.43;72.69;96318.88;5000794;28;19933;-69
2021/10/23 04:40:29;;;;;;;;;;;;;;;0.85;72.07;96310.97;5001996;28;20004;-70
2021/10/23 04:42:54;;;;;;;;;;;;;;;1.38;69.42;96314.56;5002481;28;19918;-68
2021/10/23 04:45:20;;;;;;;;;;;;;;;1.18;70.57;96308.88;5004836;28;20037;-69
2021/10/23 04:47:45;;;;;;;;;;;;;;;1.42;69.32;96308.16;5004105;28;20008;-70
2021/10/23 04:50:10;;;;;;;;;;;;;;;1.92;67.88;96298.75;5006020;28;20209;-70
2021/10/23 04:52:35;;;;;;;;;;;;;;;1.75;67.81;96292.88;5005176;28;20101;-69
2021/10/23 04:55:01;;;;;;;;;;;;;;;1.76;67.84;96291.94;5005727;28;20530;-68
2021/10/23 04:57:26;;;;;;;;;;;;;;;1.78;68.54;96292.69;5005685;28;19996;-70
2021/10/23 04:59:51;;;;;;;;;;;;;;;1.43;69.57;96293.28;5005009;28;20029;-69
2021/10/23 05:02:16;;;;;;;;;;;;;;;1.92;68.05;96286.47;5005723;28;20686;-66
2021/10/23 05:04:42;;;;;;;;;;;;;;;2.03;68.06;96274.34;5004912;28;20167;-68
2021/10/23 05:07:08;;;;;;;;;;;;;;;2.21;67.04;96266.97;5004021;28;20362;-68
2021/10/23 05:09:33;;;;;;;;;;;;;;;1.80;68.30;96272.38;5003730;28;20043;-68
2021/10/23 05:11:58;;;;;;;;;;;;;;;1.79;68.47;96278.59;5003530;28;19993;-70
2021/10/23 05:14:23;;;;;;;;;;;;;;;1.65;68.14;96276.94;5003867;28;20040;-69
2021/10/23 05:16:49;;;;;;;;;;;;;;;1.15;70.00;96287.22;5004803;28;19998;-68
2021/10/23 05:19:14;;;;;;;;;;;;;;;0.99;71.13;96290.91;5005103;28;19961;-70
2021/10/23 05:21:39;;;;;;;;;;;;;;;1.16;70.43;96294.19;5005110;28;19995;-70
2021/10/23 05:24:04;;;;;;;;;;;;;;;1.35;70.70;96305.13;5003168;28;19928;-67
2021/10/23 05:26:30;;;;;;;;;;;;;;;1.93;68.15;96305.66;5003629;28;20029;-71
2021/10/23 05:28:55;;;;;;;;;;;;;;;1.83;69.39;96310.72;5004290;28;19972;-70
2021/10/23 05:31:20;;;;;;;;;;;;;;;2.17;67.69;96324.13;5003216;28;20312;-70
2021/10/23 05:33:46;;;;;;;;;;;;;;;2.72;66.61;96315.06;5003532;28;20486;-69
2021/10/23 05:36:11;;;;;;;;;;;;;;;2.74;65.82;96323.66;5003086;28;20302;-67
2021/10/23 05:38:36;;;;;;;;;;;;;;;2.58;66.42;96330.03;5004870;28;19997;-69
2021/10/23 05:41:02;;;;;;;;;;;;;;;2.62;66.01;96328.03;5004460;28;19989;-67
2021/10/23 05:43:27;;;;;;;;;;;;;;;2.33;66.65;96330.94;5004348;28;19986;-69
2021/10/23 05:45:53;;;;;;;;;;;;;;;2.46;67.11;96321.25;5004574;28;20053;-69
2021/10/23 05:48:18;;;;;;;;;;;;;;;2.02;68.31;96333.94;5003868;28;20246;-69
2021/10/23 05:50:43;;;;;;;;;;;;;;;1.93;69.06;96339.81;5004350;28;19917;-69
2021/10/23 05:53:08;;;;;;;;;;;;;;;1.72;69.02;96354.31;5003910;28;19921;-70
2021/10/23 05:55:33;;;;;;;;;;;;;;;1.62;69.21;96351.47;5003127;28;19921;-66
2021/10/23 05:58:01;;;;;;;;;;;;;;;1.84;69.30;96347.38;5004427;28;19967;-67
2021/10/23 06:00:26;;;;;;;;;;;;;;;2.42;67.08;96355.75;5002470;28;19921;-67
2021/10/23 06:02:51;;;;;;;;;;;;;;;1.91;67.91;96355.72;5004384;28;19918;-65
2021/10/23 06:05:17;;;;;;;;;;;;;;;2.11;68.22;96364.00;5003993;28;19925;-68
2021/10/23 06:07:43;;;;;;;;;;;;;;;2.73;66.15;96356.19;5003763;28;20149;-66
2021/10/23 06:10:09;;;;;;;;;;;;;;;2.25;66.32;96360.41;5003861;28;19924;-68
2021/10/23 06:12:34;;;;;;;;;;;;;;;2.82;64.88;96352.06;5002225;28;19980;-67
2021/10/23 06:14:59;;;;;;;;;;;;;;;2.89;63.99;96345.38;5002602;28;20294;-68
2021/10/23 06:17:24;;;;;;;;;;;;;;;2.90;64.69;96352.34;5003520;28;19932;-66
2021/10/23 06:19:50;;;;;;;;;;;;;;;3.40;62.97;96352.19;5003444;28;19918;-69
2021/10/23 06:22:15;;;;;;;;;;;;;;;3.41;61.69;96353.84;4985818;28;20040;-70
2021/10/23 06:24:40;;;;;;;;;;;;;;;3.41;62.17;96367.00;5003698;28;20443;-70
2021/10/23 06:27:05;;;;;;;;;;;;;;;3.48;61.50;96361.34;5004206;28;20003;-69
2021/10/23 06:29:32;;;;;;;;;;;;;;;3.85;60.55;96361.19;5001924;28;20385;-70
2021/10/23 06:31:57;;;;;;;;;;;;;;;3.55;60.26;96371.28;5001858;28;20398;-70
2021/10/23 06:34:22;;;;;;;;;;;;;;;3.51;60.70;96375.09;5002185;28;20093;-67
2021/10/23 06:36:47;;;;;;;;;;;;;;;3.25;61.39;96382.28;5003380;28;19967;-68
2021/10/23 06:39:13;;;;;;;;;;;;;;;3.58;61.10;96391.31;5003445;28;19921;-70
2021/10/23 06:41:38;;;;;;;;;;;;;;;3.67;59.90;96390.59;4993873;28;19925;-70
2021/10/23 06:44:04;;;;;;;;;;;;;;;3.38;61.31;96396.22;5001600;28;19933;-68
2021/10/23 06:46:30;;;;;;;;;;;;;;;3.52;61.16;96395.22;4998795;28;20284;-69
2021/10/23 06:48:55;;;;;;;;;;;;;;;3.23;61.22;96405.25;5000172;28;20038;-68
2021/10/23 06:51:20;;;;;;;;;;;;;;;3.60;60.05;96405.19;4995821;28;19921;-67
2021/10/23 06:53:46;;;;;;;;;;;;;;;3.41;61.64;96406.50;4994475;28;19948;-67
2021/10/23 06:56:11;;;;;;;;;;;;;;;3.59;60.65;96407.91;4999937;28;19925;-68
2021/10/23 06:58:36;;;;;;;;;;;;;;;3.71;60.41;96411.44;4998661;28;19922;-67
2021/10/23 07:01:04;;;;;;;;;;;;;;;3.37;60.92;96418.22;4998587;28;20004;-68
2021/10/23 07:03:29;;;;;;;;;;;;;;;3.64;60.03;96418.97;4995798;28;19974;-67
2021/10/23 07:05:55;;;;;;;;;;;;;;;4.14;58.25;96420.50;4999101;28;19973;-70
2021/10/23 07:08:20;;;;;;;;;;;;;;;3.71;59.81;96421.97;4999876;28;20198;-70
2021/10/23 07:10:45;;;;;;;;;;;;;;;4.11;58.34;96424.22;5000322;28;19967;-70
2021/10/23 07:13:11;;;;;;;;;;;;;;;4.21;58.44;96431.44;5000260;28;20320;-70
2021/10/23 07:15:36;;;;;;;;;;;;;;;4.36;57.79;96437.31;4999826;28;20017;-71
2021/10/23 07:18:02;;;;;;;;;;;;;;;4.48;58.04;96440.78;5000241;28;20234;-70
2021/10/23 07:20:27;;;;;;;;;;;;;;;4.38;56.95;96441.50;4999839;28;19933;-69
2021/10/23 07:22:53;;;;;;;;;;;;;;;4.70;57.50;96446.06;4998132;28;20039;-67
2021/10/23 07:25:18;;;;;;;;;;;;;;;4.72;57.11;96443.31;4992555;28;19922;-70
2021/10/23 07:27:43;;;;;;;;;;;;;;;4.54;56.87;96451.72;4992545;28;20437;-69
2021/10/23 07:30:09;;;;;;;;;;;;;;;4.84;57.44;96457.34;4998554;28;20358;-70
2021/10/23 07:32:38;;;;;;;;;;;;;;;4.76;57.11;96449.22;4999463;28;19926;-66
2021/10/23 07:35:03;;;;;;;;;;;;;;;4.70;57.03;96461.09;4997800;28;19940;-68
2021/10/23 07:37:29;;;;;;;;;;;;;;;4.54;56.93;96469.34;4993577;28;19922;-70
2021/10/23 07:39:54;;;;;;;;;;;;;;;4.42;57.80;96473.78;5000309;28;19926;-68
2021/10/23 07:42:19;;;;;;;;;;;;;;;4.34;58.11;96471.72;4999760;28;19926;-68
2021/10/23 07:44:45;;;;;;;;;;;;;;;4.12;58.51;96485.69;4997606;28;20570;-68
2021/10/23 07:47:13;;;;;;;;;;;;;;;3.77;59.52;96498.75;5000197;28;19921;-69
2021/10/23 07:49:39;;;;;;;;;;;;;;;3.58;60.74;96514.22;4998473;28;19917;-66
2021/10/23 07:52:04;;;;;;;;;;;;;;;3.65;61.11;96507.56;4997903;28;20012;-68
2021/10/23 07:54:30;;;;;;;;;;;;;;;3.88;60.16;96516.38;4988600;28;20005;-67
2021/10/23 07:56:57;;;;;;;;;;;;;;;3.89;58.39;96510.19;4997732;28;19925;-69
2021/10/23 07:59:26;;;;;;;;;;;;;;;3.11;61.92;96531.50;4996613;28;19996;-66
2021/10/23 08:01:51;;;;;;;;;;;;;;;3.12;61.66;96525.28;4988985;28;19927;-68
2021/10/23 08:04:16;;;;;;;;;;;;;;;3.00;61.39;96531.41;4999744;28;20481;-69
2021/10/23 08:06:42;;;;;;;;;;;;;;;3.27;60.70;96522.50;4993342;28;19929;-66
2021/10/23 08:09:11;;;;;;;;;;;;;;;3.74;59.38;96512.13;4999251;28;19928;-69
2021/10/23 08:11:37;;;;;;;;;;;;;;;3.88;59.76;96524.28;4998421;28;19929;-69
2021/10/23 08:14:02;;;;;;;;;;;;;;;4.35;59.25;96515.56;4995534;28;19928;-70
2021/10/23 08:16:28;;;;;;;;;;;;;;;4.11;57.86;96526.19;4994614;28;19996;-69
2021/10/23 08:18:53;;;;;;;;;;;;;;;4.45;57.25;96521.84;5001735;28;20426;-70
2021/10/23 08:21:19;;;;;;;;;;;;;;;4.23;58.84;96532.31;5005728;28;20642;-68
2021/10/23 08:23:44;;;;;;;;;;;;;;;3.93;58.27;96535.34;5004062;28;20032;-68
2021/10/23 08:26:09;;;;;;;;;;;;;;;4.44;58.38;96535.97;5005895;28;20220;-70
2021/10/23 08:28:36;;;;;;;;;;;;;;;4.75;56.80;96531.94;4997304;28;20490;-71
2021/10/23 08:31:02;;;;;;;;;;;;;;;4.83;55.24;96540.13;4999318;28;20381;-70
2021/10/23 08:33:28;;;;;;;;;;;;;;;5.03;55.28;96529.81;4994914;28;19993;-70
2021/10/23 08:35:53;;;;;;;;;;;;;;;3.88;57.86;96540.09;5004159;28;19990;-69
2021/10/23 08:38:19;;;;;;;;;;;;;;;4.10;57.90;96538.50;5002280;28;19925;-68
2021/10/23 08:40:44;;;;;;;;;;;;;;;4.31;58.04;96543.97;4995413;28;19980;-69
2021/10/23 08:43:09;;;;;;;;;;;;;;;4.54;57.26;96551.09;4999644;28;19921;-68
2021/10/23 08:45:36;;;;;;;;;;;;;;;4.76;57.53;96552.09;4994226;28;19932;-70
2021/10/23 08:48:03;;;;;;;;;;;;;;;5.18;55.15;96557.66;4999982;28;19929;-67
2021/10/23 08:50:28;;;;;;;;;;;;;;;5.10;54.90;96549.47;5003719;28;19921;-68
2021/10/23 08:52:58;;;;;;;;;;;;;;;5.79;53.44;96547.59;5000881;28;20295;-68
2021/10/23 08:55:23;;;;;;;;;;;;;;;5.07;56.49;96555.03;4995476;28;19925;-67
2021/10/23 08:57:48;;;;;;;;;;;;;;;4.76;56.63;96550.28;5006161;28;19971;-69
2021/10/23 09:00:14;;;;;;;;;;;;;;;5.45;54.31;96556.41;5001120;28;19921;-69
2021/10/23 09:02:39;;;;;;;;;;;;;;;5.53;54.40;96557.59;4998451;28;20244;-69
2021/10/23 09:05:05;;;;;;;;;;;;;;;5.71;54.02;96558.78;4999770;28;19925;-68
2021/10/23 09:07:31;;;;;;;;;;;;;;;5.44;53.31;96567.94;4999806;28;20024;-66
2021/10/23 09:09:58;;;;;;;;;;;;;;;5.68;53.59;96566.94;5003070;28;20729;-69
2021/10/23 09:12:24;;;;;;;;;;;;;;;5.13;54.00;96572.19;5001896;28;19925;-68
2021/10/23 09:15:05;;;;;;;;;;;;;;;5.35;52.86;96566.88;4998709;28;19943;-68
2021/10/23 09:17:30;;;;;;;;;;;;;;;5.47;52.83;96573.00;5002081;28;20422;-67
2021/10/23 09:19:56;;;;;;;;;;;;;;;5.60;53.36;96562.28;5001948;28;19929;-70
2021/10/23 09:22:32;;;;;;;;;;;;;;;5.41;53.35;96576.13;4990848;28;20021;-69
2021/10/23 09:25:11;;;;;;;;;;;;;;;5.85;51.45;96583.25;4998056;28;20449;-69
2021/10/23 09:27:44;;;;;;;;;;;;;;;5.90;51.49;96586.34;4993269;28;19933;-68
2021/10/23 09:30:12;;;;;;;;;;;;;;;6.34;49.18;96585.47;4999992;28;19925;-68
2021/10/23 09:32:38;;;;;;;;;;;;;;;5.88;50.83;96593.56;4999235;28;20163;-69
2021/10/23 09:35:16;;;;;;;;;;;;;;;6.01;50.82;96590.75;5001813;28;19970;-67
2021/10/23 09:37:42;;;;;;;;;;;;;;;5.71;52.43;96600.19;5000116;28;20508;-67
2021/10/23 09:40:07;;;;;;;;;;;;;;;4.92;52.52;96607.16;5001719;28;20294;-69
2021/10/23 09:42:33;;;;;;;;;;;;;;;5.50;53.92;96610.72;4984165;28;19917;-69
2021/10/23 09:45:03;;;;;;;;;;;;;;;5.41;52.25;96605.16;4991602;28;20024;-67
2021/10/23 09:47:32;;;;;;;;;;;;;;;4.76;56.03;96616.25;5000229;28;19917;-69
2021/10/23 09:50:12;;;;;;;;;;;;;;;5.42;52.67;96613.94;5002224;28;20398;-68
2021/10/23 09:52:56;;;;;;;;;;;;;;;5.14;53.80;96605.53;4998928;28;19979;-67
2021/10/23 09:55:22;;;;;;;;;;;;;;;5.55;52.76;96612.00;4997129;28;20488;-71
2021/10/23 09:57:50;;;;;;;;;;;;;;;5.99;50.53;96612.03;4997866;28;20259;-66
2021/10/23 10:00:15;;;;;;;;;;;;;;;5.70;50.89;96609.09;4975956;28;20410;-68
2021/10/23 10:02:41;;;;;;;;;;;;;;;6.15;51.88;96605.50;4996633;28;19925;-69
2021/10/23 10:05:06;;;;;;;;;;;;;;;6.19;48.75;96606.94;4999359;28;20464;-68
2021/10/23 10:07:32;;;;;;;;;;;;;;;6.93;47.42;96601.78;4984843;28;19926;-70
2021/10/23 10:09:57;;;;;;;;;;;;;;;6.99;47.48;96609.22;4998332;28;19921;-69
2021/10/23 10:12:23;;;;;;;;;;;;;;;6.46;49.30;96618.84;5000984;28;20285;-70
2021/10/23 10:14:48;;;;;;;;;;;;;;;6.37;49.86;96623.09;5001213;28;19979;-66
2021/10/23 10:17:13;;;;;;;;;;;;;;;6.83;47.62;96622.91;4999572;28;19949;-68
2021/10/23 10:19:38;;;;;;;;;;;;;;;7.02;47.90;96616.91;5000138;28;20008;-70
2021/10/23 10:22:05;;;;;;;;;;;;;;;7.74;43.46;96612.56;4999817;28;20095;-69
2021/10/23 10:24:33;;;;;;;;;;;;;;;7.78;45.65;96620.16;4998431;28;19936;-71
2021/10/23 10:27:04;;;;;;;;;;;;;;;7.68;46.04;96619.25;4983085;28;20386;-66
2021/10/23 10:29:37;;;;;;;;;;;;;;;7.89;43.54;96623.66;4978936;28;20005;-69
2021/10/23 10:32:34;;;;;;;;;;;;;;;6.41;49.56;96615.75;4997939;28;19921;-70
2021/10/23 10:35:09;;;;;;;;;;;;;;;7.18;47.06;96615.59;4999252;28;19917;-68
2021/10/23 10:37:50;;;;;;;;;;;;;;;7.22;46.31;96619.63;5000574;28;20417;-69
2021/10/23 10:42:58;;;;;;;;;;;;;;;7.30;47.24;96621.63;4979478;28;20408;-70
2021/10/23 10:45:43;;;;;;;;;;;;;;;7.38;46.30;96626.25;4999539;28;19922;-70
2021/10/23 10:48:22;;;;;;;;;;;;;;;7.73;45.53;96616.19;5000183;28;19926;-70
2021/10/23 10:50:47;;;;;;;;;;;;;;;7.87;48.09;96625.59;5000708;28;20256;-70
2021/10/23 10:53:15;;;;;;;;;;;;;;;7.72;46.09;96620.66;4999157;28;19921;-70
2021/10/23 10:55:41;;;;;;;;;;;;;;;8.37;46.52;96622.03;5000007;28;19933;-67
2021/10/23 10:58:06;;;;;;;;;;;;;;;8.90;45.09;96617.25;5000570;28;20088;-70
2021/10/23 11:00:59;;;;;;;;;;;;;;;8.62;46.10;96617.16;5000161;28;20012;-67
2021/10/23 11:03:39;;;;;;;;;;;;;;;8.64;45.00;96611.72;5001621;28;19921;-69
2021/10/23 11:06:24;;;;;;;;;;;;;;;8.77;44.80;96616.72;4990802;28;19922;-68
2021/10/23 11:09:10;;;;;;;;;;;;;;;8.87;42.84;96620.19;4992171;28;19987;-66
2021/10/23 11:11:44;;;;;;;;;;;;;;;8.11;43.84;96629.69;4999819;28;19922;-67
2021/10/23 11:14:10;;;;;;;;;;;;;;;8.33;42.38;96622.47;4992182;28;19980;-69
2021/10/23 11:16:37;;;;;;;;;;;;;;;6.99;46.45;96625.09;4990970;28;19929;-67
2021/10/23 11:19:02;;;;;;;;;;;;;;;6.87;46.72;96620.84;4991256;28;19932;-64
2021/10/23 11:21:28;;;;;;;;;;;;;;;7.06;47.32;96630.69;4986652;28;19921;-65
2021/10/23 11:23:53;;;;;;;;;;;;;;;6.12;48.88;96624.25;4998166;28;20016;-66
2021/10/23 11:26:18;;;;;;;;;;;;;;;6.09;48.04;96627.16;4996889;28;19921;-67
2021/10/23 11:28:44;;;;;;;;;;;;;;;6.14;47.82;96630.28;4991310;28;19933;-66
2021/10/23 11:31:21;;;;;;;;;;;;;;;5.72;50.71;96634.44;4992269;28;20436;-69
2021/10/23 11:33:47;;;;;;;;;;;;;;;5.79;50.77;96631.31;4990550;28;20337;-66
2021/10/23 11:36:12;;;;;;;;;;;;;;;5.63;51.48;96632.53;4996374;28;19925;-66
2021/10/23 11:38:38;;;;;;;;;;;;;;;6.04;52.87;96634.63;4997253;28;20396;-66
2021/10/23 11:41:04;;;;;;;;;;;;;;;6.28;49.19;96628.28;4998506;28;19921;-65
2021/10/23 11:43:30;;;;;;;;;;;;;;;5.97;49.11;96631.63;4996210;28;19928;-67
2021/10/23 11:45:57;;;;;;;;;;;;;;;6.35;48.14;96626.81;4998256;28;19917;-66
2021/10/23 11:48:22;;;;;;;;;;;;;;;6.67;49.01;96623.38;4996721;28;20437;-67
2021/10/23 11:50:48;;;;;;;;;;;;;;;6.27;49.33;96629.25;4993902;28;19925;-68
2021/10/23 11:53:17;;;;;;;;;;;;;;;6.30;49.26;96627.22;4992200;28;19921;-67
2021/10/23 11:55:43;;;;;;;;;;;;;;;6.66;47.56;96619.00;4998291;28;19921;-70
2021/10/23 11:58:12;;;;;;;;;;;;;;;7.14;46.32;96625.59;4998105;28;20537;-68
2021/10/23 12:00:38;;;;;;;;;;;;;;;7.48;44.64;96621.81;4998616;28;20123;-68
2021/10/23 12:03:05;;;;;;;;;;;;;;;7.21;47.25;96619.78;4998815;28;19990;-68
2021/10/23 12:05:40;;;;;;;;;;;;;;;6.97;46.48;96621.72;4996276;28;20412;-70
2021/10/23 12:08:18;;;;;;;;;;;;;;;7.05;49.07;96615.78;4983874;28;19925;-67
2021/10/23 12:11:02;;;;;;;;;;;;;;;7.38;45.56;96620.97;4995359;28;19932;-67
2021/10/23 12:13:48;;;;;;;;;;;;;;;8.10;43.93;96620.06;4987576;28;19980;-66
2021/10/23 12:16:13;;;;;;;;;;;;;;;8.26;46.49;96623.00;4997500;28;19921;-67
2021/10/23 12:18:39;;;;;;;;;;;;;;;8.62;43.37;96621.63;4997473;28;19939;-67
2021/10/23 12:21:14;;;;;;;;;;;;;;;7.69;45.53;96620.94;4997691;28;19936;-67
2021/10/23 12:23:43;;;;;;;;;;;;;;;7.69;44.65;96626.25;4998164;28;19921;-66
2021/10/23 12:26:08;;;;;;;;;;;;;;;8.44;41.49;96620.50;4998520;28;19921;-68
2021/10/23 12:28:53;;;;;;;;;;;;;;;8.02;43.05;96629.53;4997776;28;19930;-69
2021/10/23 12:31:18;;;;;;;;;;;;;;;7.77;45.55;96633.53;4997997;28;20425;-68
2021/10/23 12:34:02;;;;;;;;;;;;;;;7.75;46.87;96633.63;4996817;28;20249;-70
2021/10/23 12:36:27;;;;;;;;;;;;;;;7.97;43.00;96626.47;4996604;28;19971;-69
2021/10/23 12:38:53;;;;;;;;;;;;;;;7.77;45.98;96629.09;4996851;28;20308;-69
2021/10/23 12:41:18;;;;;;;;;;;;;;;8.01;44.50;96622.56;4997892;28;19998;-72
2021/10/23 12:43:43;;;;;;;;;;;;;;;8.28;43.48;96625.53;4979695;28;19921;-69
2021/10/23 12:46:10;;;;;;;;;;;;;;;8.62;44.24;96621.63;4998269;28;19989;-71
2021/10/23 12:48:36;;;;;;;;;;;;;;;8.24;41.89;96624.97;4997744;28;20012;-69
2021/10/23 12:51:01;;;;;;;;;;;;;;;8.49;42.52;96616.59;4998274;28;20008;-70
2021/10/23 12:53:26;;;;;;;;;;;;;;;8.08;44.46;96625.50;4997459;28;19921;-69
2021/10/23 12:55:52;;;;;;;;;;;;;;;7.68;42.14;96624.53;4997752;28;20472;-67
2021/10/23 12:58:17;;;;;;;;;;;;;;;7.79;43.17;96624.47;4998293;28;20046;-69